Time;durP1;ratioP1;P1;durP2;ratioP2;P2;SDS_P1;SDS_P2;PMS_P1;PMS_P2;Temp;Humidity;BMP_temperature;BMP_pressure;BME280_temperature;BME280_humidity;BME280_pressure;Samples;Min_cycle;Max_cycle;Signal;HPM_P1;HPM_P2
2023/03/10 00:02:23;;;;;;;4.10;1.35;;;;;;;;;;7389816;19;20091;-70
2023/03/10 00:04:50;;;;;;;3.80;1.30;;;;;;;;;;7387820;19;20006;-70
2023/03/10 00:07:15;;;;;;;2.00;1.00;;;;;;;;;;7389535;19;19995;-69
2023/03/10 00:09:41;;;;;;;0.82;0.80;;;;;;;;;;7389560;19;20061;-70
2023/03/10 00:12:06;;;;;;;3.55;1.13;;;;;;;;;;7388994;19;19999;-69
2023/03/10 00:14:32;;;;;;;0.90;0.88;;;;;;;;;;7386660;19;20006;-69
2023/03/10 00:16:57;;;;;;;3.78;1.10;;;;;;;;;;7389229;19;20018;-69
2023/03/10 00:19:22;;;;;;;1.70;0.98;;;;;;;;;;7387794;19;20062;-69
2023/03/10 00:21:47;;;;;;;2.33;1.20;;;;;;;;;;7387922;19;20016;-69
2023/03/10 00:24:13;;;;;;;5.55;1.30;;;;;;;;;;7386112;19;20011;-69
2023/03/10 00:26:38;;;;;;;3.58;1.15;;;;;;;;;;7389133;19;20503;-68
2023/03/10 00:29:04;;;;;;;2.95;1.30;;;;;;;;;;7388808;19;20003;-69
2023/03/10 00:31:30;;;;;;;1.35;0.98;;;;;;;;;;7386649;19;20025;-69
2023/03/10 00:33:56;;;;;;;1.90;1.10;;;;;;;;;;7386343;19;19999;-69
2023/03/10 00:36:25;;;;;;;1.92;0.85;;;;;;;;;;7386980;19;20029;-69
2023/03/10 00:38:52;;;;;;;4.07;1.08;;;;;;;;;;7388571;19;20026;-69
2023/03/10 00:41:20;;;;;;;2.20;1.10;;;;;;;;;;7388435;19;20014;-69
2023/03/10 00:43:46;;;;;;;2.85;1.20;;;;;;;;;;7388085;19;20013;-69
2023/03/10 00:46:11;;;;;;;3.78;1.48;;;;;;;;;;7388625;19;20002;-69
2023/03/10 00:48:37;;;;;;;3.40;0.93;;;;;;;;;;7388485;19;19999;-69
2023/03/10 00:51:04;;;;;;;5.70;1.23;;;;;;;;;;7388470;19;19999;-69
2023/03/10 00:53:30;;;;;;;2.42;1.15;;;;;;;;;;7386610;19;20002;-69
2023/03/10 00:56:04;;;;;;;2.80;1.20;;;;;;;;;;7388712;19;20010;-69
2023/03/10 00:58:31;;;;;;;2.55;1.17;;;;;;;;;;7388204;19;20006;-69
2023/03/10 01:00:57;;;;;;;2.75;1.10;;;;;;;;;;7388379;19;20058;-69
2023/03/10 01:03:23;;;;;;;3.40;1.10;;;;;;;;;;7385493;19;20034;-69
2023/03/10 01:05:49;;;;;;;1.45;1.10;;;;;;;;;;7387881;19;20369;-69
2023/03/10 01:08:15;;;;;;;2.40;1.23;;;;;;;;;;7386893;19;20003;-71
2023/03/10 01:10:40;;;;;;;2.35;1.20;;;;;;;;;;7385214;19;20482;-68
2023/03/10 01:13:05;;;;;;;5.47;1.00;;;;;;;;;;7386669;19;19995;-69
2023/03/10 01:15:31;;;;;;;1.27;0.80;;;;;;;;;;7388366;19;20002;-69
2023/03/10 01:17:56;;;;;;;2.65;1.27;;;;;;;;;;7385987;19;20023;-71
2023/03/10 01:20:21;;;;;;;3.03;1.20;;;;;;;;;;7388050;19;20016;-70
2023/03/10 01:22:47;;;;;;;1.38;1.00;;;;;;;;;;7386722;19;19999;-70
2023/03/10 01:25:15;;;;;;;2.28;1.00;;;;;;;;;;7384736;19;20066;-68
2023/03/10 01:27:42;;;;;;;2.40;0.98;;;;;;;;;;7387664;19;20013;-69
2023/03/10 01:30:09;;;;;;;2.28;0.90;;;;;;;;;;7390189;19;20027;-68
2023/03/10 01:32:36;;;;;;;1.33;1.00;;;;;;;;;;7386602;19;20389;-69
2023/03/10 01:35:01;;;;;;;5.28;1.10;;;;;;;;;;7385772;19;20069;-72
2023/03/10 01:37:27;;;;;;;2.22;1.00;;;;;;;;;;7387496;19;20490;-70
2023/03/10 01:39:52;;;;;;;2.92;1.00;;;;;;;;;;7386862;19;20007;-70
2023/03/10 01:42:17;;;;;;;3.55;1.10;;;;;;;;;;7387461;19;20003;-70
2023/03/10 01:45:04;;;;;;;2.33;1.20;;;;;;;;;;7384733;19;20011;-70
2023/03/10 01:47:30;;;;;;;1.80;0.95;;;;;;;;;;7387406;19;20037;-70
2023/03/10 01:49:55;;;;;;;1.35;1.00;;;;;;;;;;7389544;19;20381;-70
2023/03/10 01:52:23;;;;;;;1.10;0.73;;;;;;;;;;7386213;19;20470;-70
2023/03/10 01:54:55;;;;;;;1.90;1.05;;;;;;;;;;7383880;19;20031;-70
2023/03/10 01:57:25;;;;;;;1.80;0.90;;;;;;;;;;7384838;19;20003;-68
2023/03/10 01:59:51;;;;;;;1.08;0.80;;;;;;;;;;7384213;19;20023;-69
2023/03/10 02:02:17;;;;;;;1.92;1.00;;;;;;;;;;7386188;19;20015;-68
2023/03/10 02:04:47;;;;;;;3.10;1.08;;;;;;;;;;7382333;19;19999;-70
2023/03/10 02:07:14;;;;;;;2.35;0.90;;;;;;;;;;7387236;19;20008;-68
2023/03/10 02:09:43;;;;;;;1.77;0.75;;;;;;;;;;7385090;19;19995;-69
2023/03/10 02:12:10;;;;;;;1.15;0.93;;;;;;;;;;7386413;19;20090;-70
2023/03/10 02:14:37;;;;;;;1.50;0.90;;;;;;;;;;7383519;19;20006;-70
2023/03/10 02:17:05;;;;;;;2.17;1.25;;;;;;;;;;7385888;19;20430;-70
2023/03/10 02:19:42;;;;;;;2.25;0.90;;;;;;;;;;7383460;19;20010;-70
2023/03/10 02:22:11;;;;;;;2.78;0.88;;;;;;;;;;7390697;19;20339;-69
2023/03/10 02:24:51;;;;;;;2.20;1.00;;;;;;;;;;7387897;19;19995;-70
2023/03/10 02:27:31;;;;;;;1.30;0.77;;;;;;;;;;7390621;19;20002;-69
2023/03/10 02:30:12;;;;;;;1.02;0.80;;;;;;;;;;7391173;19;20579;-70
2023/03/10 02:32:42;;;;;;;0.75;0.70;;;;;;;;;;7392488;19;19995;-70
2023/03/10 02:35:09;;;;;;;0.80;0.80;;;;;;;;;;7391068;19;20002;-70
2023/03/10 02:37:35;;;;;;;1.70;1.00;;;;;;;;;;7393109;19;20349;-70
2023/03/10 02:40:02;;;;;;;2.65;1.23;;;;;;;;;;7392355;19;20003;-70
2023/03/10 02:42:32;;;;;;;3.88;1.20;;;;;;;;;;7392829;19;20403;-70
2023/03/10 02:44:58;;;;;;;3.13;1.02;;;;;;;;;;7390272;19;20003;-70
2023/03/10 02:47:23;;;;;;;1.15;0.90;;;;;;;;;;7394978;19;20009;-70
2023/03/10 02:49:49;;;;;;;3.15;1.00;;;;;;;;;;7392193;19;20362;-70
2023/03/10 02:52:43;;;;;;;1.95;0.90;;;;;;;;;;7392312;19;19994;-70
2023/03/10 02:55:18;;;;;;;1.20;0.90;;;;;;;;;;7387785;19;20002;-70
2023/03/10 02:57:43;;;;;;;2.70;0.85;;;;;;;;;;7390857;19;20001;-69
2023/03/10 03:00:10;;;;;;;1.52;0.90;;;;;;;;;;7392569;19;20008;-69
2023/03/10 03:02:36;;;;;;;1.17;1.08;;;;;;;;;;7391943;19;20023;-69
2023/03/10 03:05:02;;;;;;;1.10;0.90;;;;;;;;;;7389743;19;20003;-69
2023/03/10 03:07:27;;;;;;;6.10;1.10;;;;;;;;;;7392352;19;20068;-68
2023/03/10 03:09:53;;;;;;;2.20;1.05;;;;;;;;;;7391867;19;20011;-69
2023/03/10 03:12:18;;;;;;;1.80;0.93;;;;;;;;;;7392300;19;20014;-68
2023/03/10 03:14:43;;;;;;;1.90;1.05;;;;;;;;;;7388595;19;20043;-69
2023/03/10 03:17:12;;;;;;;1.85;0.90;;;;;;;;;;7390418;19;20110;-68
2023/03/10 03:19:37;;;;;;;2.95;0.90;;;;;;;;;;7392811;19;20473;-68
2023/03/10 03:22:02;;;;;;;1.08;0.90;;;;;;;;;;7393223;19;20028;-69
2023/03/10 03:24:28;;;;;;;2.10;1.10;;;;;;;;;;7391874;19;20110;-69
2023/03/10 03:26:53;;;;;;;1.95;1.05;;;;;;;;;;7392765;19;20417;-69
2023/03/10 03:29:18;;;;;;;1.15;0.90;;;;;;;;;;7391610;19;20464;-69
2023/03/10 03:31:44;;;;;;;1.65;1.20;;;;;;;;;;7391778;19;19999;-70
2023/03/10 03:34:10;;;;;;;2.42;1.10;;;;;;;;;;7388724;19;20003;-68
2023/03/10 03:36:36;;;;;;;3.08;1.30;;;;;;;;;;7391698;19;20074;-69
2023/03/10 03:39:05;;;;;;;2.55;1.10;;;;;;;;;;7390432;19;20010;-68
2023/03/10 03:41:31;;;;;;;4.88;1.20;;;;;;;;;;7391096;19;19999;-70
2023/03/10 03:43:56;;;;;;;2.03;1.02;;;;;;;;;;7389476;19;19998;-70
2023/03/10 03:46:21;;;;;;;1.55;1.08;;;;;;;;;;7388943;19;19999;-68
2023/03/10 03:48:46;;;;;;;2.42;1.40;;;;;;;;;;7388850;19;19995;-70
2023/03/10 03:51:12;;;;;;;1.17;1.00;;;;;;;;;;7390325;19;19998;-69
2023/03/10 03:53:37;;;;;;;4.88;1.50;;;;;;;;;;7388785;19;20003;-69
2023/03/10 03:56:03;;;;;;;1.90;1.00;;;;;;;;;;7393077;19;20037;-69
2023/03/10 03:58:28;;;;;;;1.55;1.00;;;;;;;;;;7390112;19;20469;-69
2023/03/10 04:00:53;;;;;;;2.15;1.23;;;;;;;;;;7390091;19;20010;-70
2023/03/10 04:03:19;;;;;;;3.47;1.13;;;;;;;;;;7387015;19;20002;-69
2023/03/10 04:05:44;;;;;;;1.55;1.00;;;;;;;;;;7389495;19;20003;-69
2023/03/10 04:08:11;;;;;;;2.53;1.20;;;;;;;;;;7390018;19;19999;-69
2023/03/10 04:10:37;;;;;;;1.63;1.20;;;;;;;;;;7389638;19;20016;-69
2023/03/10 04:13:02;;;;;;;1.75;1.13;;;;;;;;;;7388452;19;19998;-68
2023/03/10 04:15:28;;;;;;;2.67;1.35;;;;;;;;;;7386305;19;20679;-68
2023/03/10 04:17:53;;;;;;;3.83;1.13;;;;;;;;;;7387815;19;19999;-69
2023/03/10 04:20:18;;;;;;;3.50;1.42;;;;;;;;;;7389424;19;20499;-69
2023/03/10 04:22:44;;;;;;;3.15;1.25;;;;;;;;;;7388889;19;20020;-69
2023/03/10 04:25:10;;;;;;;4.15;1.33;;;;;;;;;;7387905;19;20006;-69
2023/03/10 04:27:35;;;;;;;5.57;1.40;;;;;;;;;;7389165;19;20494;-70
2023/03/10 04:30:01;;;;;;;2.67;1.17;;;;;;;;;;7388913;19;20007;-69
2023/03/10 04:32:26;;;;;;;4.25;1.30;;;;;;;;;;7387340;19;19999;-70
2023/03/10 04:34:51;;;;;;;4.50;1.83;;;;;;;;;;7386236;19;20013;-69
2023/03/10 04:37:17;;;;;;;4.25;1.42;;;;;;;;;;7389340;19;20033;-70
2023/03/10 04:39:42;;;;;;;4.50;1.42;;;;;;;;;;7386942;19;20005;-70
2023/03/10 04:42:08;;;;;;;4.13;1.50;;;;;;;;;;7389705;19;19999;-69
2023/03/10 04:44:34;;;;;;;5.00;1.27;;;;;;;;;;7385116;19;20504;-69
2023/03/10 04:46:59;;;;;;;6.38;1.92;;;;;;;;;;7390770;19;20030;-69
2023/03/10 04:49:25;;;;;;;3.75;1.38;;;;;;;;;;7388470;19;20003;-69
2023/03/10 04:51:51;;;;;;;2.42;1.30;;;;;;;;;;7386867;19;20357;-69
2023/03/10 04:54:16;;;;;;;2.60;1.48;;;;;;;;;;7386791;19;20564;-69
2023/03/10 04:56:41;;;;;;;3.20;1.30;;;;;;;;;;7388433;19;20522;-69
2023/03/10 04:59:07;;;;;;;4.43;1.63;;;;;;;;;;7387115;19;20126;-69
2023/03/10 05:01:33;;;;;;;8.18;1.80;;;;;;;;;;7383841;19;20453;-70
2023/03/10 05:03:59;;;;;;;7.13;2.33;;;;;;;;;;7390552;19;20003;-70
2023/03/10 05:06:25;;;;;;;5.20;1.90;;;;;;;;;;7391714;19;19999;-70
2023/03/10 05:08:50;;;;;;;5.35;1.90;;;;;;;;;;7391953;19;20033;-70
2023/03/10 05:11:15;;;;;;;5.25;1.40;;;;;;;;;;7387912;19;19991;-70
2023/03/10 05:13:41;;;;;;;6.50;1.50;;;;;;;;;;7388007;19;20337;-69
2023/03/10 05:16:18;;;;;;;7.18;2.08;;;;;;;;;;7388748;19;19999;-69
2023/03/10 05:18:44;;;;;;;10.00;2.63;;;;;;;;;;7392240;19;20019;-69
2023/03/10 05:21:10;;;;;;;4.40;1.40;;;;;;;;;;7388565;19;19986;-69
2023/03/10 05:23:36;;;;;;;7.28;1.70;;;;;;;;;;7386650;19;20015;-70
2023/03/10 05:26:06;;;;;;;8.40;3.03;;;;;;;;;;7387880;19;20003;-70
2023/03/10 05:28:31;;;;;;;7.75;1.77;;;;;;;;;;7387205;19;20002;-70
2023/03/10 05:30:57;;;;;;;6.07;3.22;;;;;;;;;;7386001;19;20006;-69
2023/03/10 05:33:23;;;;;;;7.55;2.70;;;;;;;;;;7382049;19;20006;-69
2023/03/10 05:35:48;;;;;;;8.68;1.95;;;;;;;;;;7388947;19;20010;-69
2023/03/10 05:38:14;;;;;;;6.85;1.83;;;;;;;;;;7388711;19;19999;-70
2023/03/10 05:40:40;;;;;;;6.43;1.58;;;;;;;;;;7390307;19;20329;-69
2023/03/10 05:43:05;;;;;;;4.88;1.50;;;;;;;;;;7390415;19;20030;-69
2023/03/10 05:45:31;;;;;;;6.25;2.45;;;;;;;;;;7383258;19;20009;-68
2023/03/10 05:47:56;;;;;;;2.60;0.98;;;;;;;;;;7384854;19;20002;-70
2023/03/10 05:50:21;;;;;;;8.40;1.50;;;;;;;;;;7386854;19;20299;-71
2023/03/10 05:52:47;;;;;;;8.70;2.00;;;;;;;;;;7381753;19;19991;-70
2023/03/10 05:55:14;;;;;;;4.28;1.35;;;;;;;;;;7379785;19;19998;-69
2023/03/10 05:57:40;;;;;;;8.27;2.95;;;;;;;;;;7379441;19;19999;-70
2023/03/10 06:00:10;;;;;;;8.32;2.65;;;;;;;;;;7381326;19;20232;-70
2023/03/10 06:02:39;;;;;;;4.25;1.70;;;;;;;;;;7382198;19;20031;-71
2023/03/10 06:05:06;;;;;;;3.90;1.42;;;;;;;;;;7389205;19;20011;-70
2023/03/10 06:07:32;;;;;;;6.05;2.15;;;;;;;;;;7389198;19;20387;-70
2023/03/10 06:09:57;;;;;;;5.13;2.08;;;;;;;;;;7390733;19;20015;-69
2023/03/10 06:12:22;;;;;;;6.18;1.83;;;;;;;;;;7392939;19;19994;-70
2023/03/10 06:14:48;;;;;;;7.38;2.50;;;;;;;;;;7389717;19;20001;-70
2023/03/10 06:17:13;;;;;;;9.20;1.83;;;;;;;;;;7391010;19;19998;-70
2023/03/10 06:19:38;;;;;;;6.80;1.92;;;;;;;;;;7391281;19;20002;-69
2023/03/10 06:22:04;;;;;;;11.77;5.78;;;;;;;;;;7392543;19;19998;-70
2023/03/10 06:24:29;;;;;;;8.93;2.33;;;;;;;;;;7390441;19;19998;-69
2023/03/10 06:26:54;;;;;;;8.50;4.25;;;;;;;;;;7392371;19;20003;-70
2023/03/10 06:29:20;;;;;;;4.60;2.15;;;;;;;;;;7392785;19;19990;-61
2023/03/10 06:31:45;;;;;;;7.57;1.85;;;;;;;;;;7392708;19;20002;-58
2023/03/10 06:34:11;;;;;;;6.20;1.48;;;;;;;;;;7381895;19;19995;-70
2023/03/10 06:36:39;;;;;;;4.55;1.65;;;;;;;;;;7394166;19;20387;-70
2023/03/10 06:39:05;;;;;;;5.90;1.55;;;;;;;;;;7395739;19;20099;-70
2023/03/10 06:41:30;;;;;;;9.23;2.28;;;;;;;;;;7392677;19;20003;-69
2023/03/10 06:43:56;;;;;;;6.72;1.58;;;;;;;;;;7391204;19;19994;-70
2023/03/10 06:46:21;;;;;;;5.70;1.48;;;;;;;;;;7394178;19;20350;-70
2023/03/10 06:48:46;;;;;;;5.50;1.60;;;;;;;;;;7393463;19;20488;-70
2023/03/10 06:51:16;;;;;;;6.00;1.75;;;;;;;;;;7393806;19;20026;-69
2023/03/10 06:53:41;;;;;;;7.97;1.70;;;;;;;;;;7392740;19;20005;-69
2023/03/10 06:56:19;;;;;;;3.72;1.38;;;;;;;;;;7394975;19;19999;-69
2023/03/10 06:58:45;;;;;;;6.22;1.45;;;;;;;;;;7392598;19;20002;-69
2023/03/10 07:01:24;;;;;;;3.25;1.35;;;;;;;;;;7391448;19;19998;-69
2023/03/10 07:03:49;;;;;;;5.38;1.60;;;;;;;;;;7393157;19;20032;-69
2023/03/10 07:06:14;;;;;;;4.10;1.02;;;;;;;;;;7395489;19;19991;-70
2023/03/10 07:08:40;;;;;;;4.53;1.45;;;;;;;;;;7390847;19;20015;-70
2023/03/10 07:11:05;;;;;;;5.80;1.45;;;;;;;;;;7392102;19;20103;-69
2023/03/10 07:13:30;;;;;;;3.22;1.30;;;;;;;;;;7394349;19;19995;-68
2023/03/10 07:15:56;;;;;;;2.88;1.33;;;;;;;;;;7389706;19;20483;-67
2023/03/10 07:18:21;;;;;;;5.05;1.60;;;;;;;;;;7394628;19;20002;-68
2023/03/10 07:20:46;;;;;;;4.55;1.48;;;;;;;;;;7393378;19;20018;-69
2023/03/10 07:23:12;;;;;;;4.72;1.50;;;;;;;;;;7392426;19;20010;-68
2023/03/10 07:25:38;;;;;;;4.93;1.50;;;;;;;;;;7390345;19;20271;-66
2023/03/10 07:28:05;;;;;;;9.63;2.05;;;;;;;;;;7393522;19;20471;-67
2023/03/10 07:30:31;;;;;;;8.40;1.83;;;;;;;;;;7392862;19;20363;-69
2023/03/10 07:32:56;;;;;;;5.93;2.05;;;;;;;;;;7391962;19;19998;-67
2023/03/10 07:35:22;;;;;;;5.75;1.75;;;;;;;;;;7390748;19;20014;-69
2023/03/10 07:37:47;;;;;;;7.20;1.85;;;;;;;;;;7393068;19;20004;-69
2023/03/10 07:40:12;;;;;;;8.75;2.20;;;;;;;;;;7393913;19;20352;-69
2023/03/10 07:42:38;;;;;;;10.95;2.10;;;;;;;;;;7391547;19;20001;-68
2023/03/10 07:45:04;;;;;;;6.68;2.33;;;;;;;;;;7389138;19;20375;-68
2023/03/10 07:47:29;;;;;;;7.30;1.92;;;;;;;;;;7391802;19;20074;-66
2023/03/10 07:49:55;;;;;;;6.68;2.00;;;;;;;;;;7390270;19;20002;-68
2023/03/10 07:52:20;;;;;;;6.80;1.70;;;;;;;;;;7390906;19;20532;-68
2023/03/10 07:54:46;;;;;;;6.43;1.63;;;;;;;;;;7387769;19;20413;-68
2023/03/10 07:57:35;;;;;;;6.75;1.70;;;;;;;;;;7390548;19;20066;-68
2023/03/10 08:00:00;;;;;;;6.45;1.25;;;;;;;;;;7389883;19;20370;-69
2023/03/10 08:02:25;;;;;;;4.82;1.40;;;;;;;;;;7391953;19;20448;-68
2023/03/10 08:04:51;;;;;;;4.93;1.50;;;;;;;;;;7389662;19;20021;-67
2023/03/10 08:07:17;;;;;;;6.78;1.40;;;;;;;;;;7389649;19;20029;-68
2023/03/10 08:09:49;;;;;;;9.18;1.63;;;;;;;;;;7391602;19;20000;-67
2023/03/10 08:12:15;;;;;;;8.00;1.60;;;;;;;;;;7390794;19;20015;-69
2023/03/10 08:14:40;;;;;;;7.70;1.40;;;;;;;;;;7385135;19;20401;-68
2023/03/10 08:17:06;;;;;;;4.50;1.70;;;;;;;;;;7390547;19;19999;-68
2023/03/10 08:19:31;;;;;;;4.60;1.23;;;;;;;;;;7385512;19;20073;-67
2023/03/10 08:21:56;;;;;;;5.85;1.15;;;;;;;;;;7389500;19;20382;-68
2023/03/10 08:24:23;;;;;;;4.25;1.25;;;;;;;;;;7387062;19;20258;-67
2023/03/10 08:26:48;;;;;;;1.67;0.90;;;;;;;;;;7386281;19;19999;-68
2023/03/10 08:29:13;;;;;;;1.88;0.90;;;;;;;;;;7387956;19;20008;-68
2023/03/10 08:31:40;;;;;;;3.30;1.13;;;;;;;;;;7388448;19;20001;-69
2023/03/10 08:34:05;;;;;;;3.03;0.93;;;;;;;;;;7378915;19;20010;-68
2023/03/10 08:36:30;;;;;;;3.08;1.00;;;;;;;;;;7389604;19;20480;-67
2023/03/10 08:38:57;;;;;;;3.40;1.00;;;;;;;;;;7391800;19;20017;-68
2023/03/10 08:41:28;;;;;;;2.95;1.00;;;;;;;;;;7390876;19;20062;-67
2023/03/10 08:43:55;;;;;;;1.90;0.95;;;;;;;;;;7384727;19;20100;-68
2023/03/10 08:46:23;;;;;;;2.88;1.08;;;;;;;;;;7390063;19;19998;-68
2023/03/10 08:48:49;;;;;;;2.92;1.00;;;;;;;;;;7387644;19;19999;-69
2023/03/10 08:51:15;;;;;;;1.90;0.85;;;;;;;;;;7388577;19;20088;-68
2023/03/10 08:53:40;;;;;;;5.85;1.20;;;;;;;;;;7386239;19;20481;-68
2023/03/10 08:56:06;;;;;;;6.65;1.45;;;;;;;;;;7387048;19;20002;-68
2023/03/10 08:58:31;;;;;;;3.53;1.23;;;;;;;;;;7390300;19;20006;-68
2023/03/10 09:00:57;;;;;;;3.63;1.10;;;;;;;;;;7386726;19;20050;-68
2023/03/10 09:03:23;;;;;;;3.97;1.05;;;;;;;;;;7386249;19;20029;-67
2023/03/10 09:05:48;;;;;;;4.45;1.02;;;;;;;;;;7384834;19;19999;-68
2023/03/10 09:08:14;;;;;;;4.72;1.23;;;;;;;;;;7385579;19;20050;-67
2023/03/10 09:10:40;;;;;;;5.05;1.15;;;;;;;;;;7387187;19;19995;-68
2023/03/10 09:13:06;;;;;;;5.18;1.23;;;;;;;;;;7389511;19;20002;-69
2023/03/10 09:15:33;;;;;;;3.70;1.02;;;;;;;;;;7386296;19;20002;-68
2023/03/10 09:18:00;;;;;;;4.22;1.30;;;;;;;;;;7389738;19;19999;-68
2023/03/10 09:20:26;;;;;;;3.63;1.08;;;;;;;;;;7388193;19;20061;-68
2023/03/10 09:22:55;;;;;;;6.63;1.60;;;;;;;;;;7387875;19;20032;-67
2023/03/10 09:25:21;;;;;;;3.88;1.40;;;;;;;;;;7384745;19;20002;-68
2023/03/10 09:27:46;;;;;;;4.95;1.35;;;;;;;;;;7388203;19;20026;-70
2023/03/10 09:30:12;;;;;;;5.35;1.85;;;;;;;;;;7383497;19;20007;-68
2023/03/10 09:32:38;;;;;;;4.63;1.38;;;;;;;;;;7387366;19;20027;-68
2023/03/10 09:35:04;;;;;;;3.33;1.45;;;;;;;;;;7384805;19;19994;-67
2023/03/10 09:37:31;;;;;;;5.25;1.73;;;;;;;;;;7384177;19;20002;-68
2023/03/10 09:39:56;;;;;;;7.15;1.73;;;;;;;;;;7385896;19;19999;-67
2023/03/10 09:43:02;;;;;;;5.85;1.50;;;;;;;;;;7386495;19;20002;-68
2023/03/10 09:45:51;;;;;;;2.60;1.10;;;;;;;;;;7387251;19;19999;-68
2023/03/10 09:48:35;;;;;;;4.60;1.48;;;;;;;;;;7383846;19;20343;-68
2023/03/10 09:51:10;;;;;;;3.25;1.40;;;;;;;;;;7389370;19;19999;-67
2023/03/10 09:53:42;;;;;;;4.07;1.50;;;;;;;;;;7387510;19;20051;-68
2023/03/10 09:56:11;;;;;;;5.40;1.52;;;;;;;;;;7385557;19;20023;-67
2023/03/10 09:58:39;;;;;;;5.45;1.67;;;;;;;;;;7387796;19;20015;-67
2023/03/10 10:01:20;;;;;;;4.45;1.65;;;;;;;;;;7385546;19;19998;-67
2023/03/10 10:03:55;;;;;;;2.83;1.20;;;;;;;;;;7386328;19;20141;-66
2023/03/10 10:06:24;;;;;;;3.70;1.27;;;;;;;;;;7387948;19;20346;-68
2023/03/10 10:08:56;;;;;;;4.60;1.52;;;;;;;;;;7385856;19;20335;-67
2023/03/10 10:11:22;;;;;;;3.63;1.00;;;;;;;;;;7385946;19;20373;-67
2023/03/10 10:14:11;;;;;;;5.50;1.27;;;;;;;;;;7385722;19;20465;-68
2023/03/10 10:16:52;;;;;;;2.20;1.00;;;;;;;;;;7384518;19;19998;-68
2023/03/10 10:19:22;;;;;;;1.60;1.10;;;;;;;;;;7386866;19;19991;-66
2023/03/10 10:21:51;;;;;;;1.67;1.13;;;;;;;;;;7384650;19;20001;-68
2023/03/10 10:24:17;;;;;;;3.40;0.90;;;;;;;;;;7386498;19;20003;-67
2023/03/10 10:26:42;;;;;;;4.43;1.25;;;;;;;;;;7384422;19;19995;-68
2023/03/10 10:29:16;;;;;;;3.08;1.23;;;;;;;;;;7386632;19;19995;-69
2023/03/10 10:31:41;;;;;;;4.10;1.17;;;;;;;;;;7384983;19;19995;-66
2023/03/10 10:34:21;;;;;;;1.73;1.10;;;;;;;;;;7385153;19;19995;-67
2023/03/10 10:36:54;;;;;;;2.40;1.30;;;;;;;;;;7386626;19;19998;-67
2023/03/10 10:39:31;;;;;;;5.50;1.38;;;;;;;;;;7386294;19;20089;-68
2023/03/10 10:42:23;;;;;;;7.07;1.15;;;;;;;;;;7388037;19;20003;-67
2023/03/10 10:44:51;;;;;;;2.72;0.90;;;;;;;;;;7380943;19;20505;-68
2023/03/10 10:47:35;;;;;;;2.85;1.20;;;;;;;;;;7384642;19;19999;-68
2023/03/10 10:50:28;;;;;;;1.50;1.10;;;;;;;;;;7385542;19;20013;-67
2023/03/10 10:53:12;;;;;;;2.25;1.00;;;;;;;;;;7389047;19;20019;-68
2023/03/10 10:55:39;;;;;;;0.88;0.75;;;;;;;;;;7389487;19;20005;-67
2023/03/10 10:58:24;;;;;;;2.20;0.80;;;;;;;;;;7393321;19;20003;-68
2023/03/10 11:00:57;;;;;;;0.80;0.80;;;;;;;;;;7392367;19;20448;-67
2023/03/10 11:03:33;;;;;;;1.73;0.73;;;;;;;;;;7392811;19;20031;-67
2023/03/10 11:05:59;;;;;;;6.75;0.80;;;;;;;;;;7389165;19;20464;-67
2023/03/10 11:08:36;;;;;;;1.05;0.77;;;;;;;;;;7390972;19;19999;-68
2023/03/10 11:11:25;;;;;;;1.30;0.82;;;;;;;;;;7391686;19;19994;-67
2023/03/10 11:13:59;;;;;;;1.15;1.00;;;;;;;;;;7390171;19;19994;-68
2023/03/10 11:16:30;;;;;;;0.90;0.90;;;;;;;;;;7391149;19;20006;-67
2023/03/10 11:19:04;;;;;;;2.58;1.20;;;;;;;;;;7390902;19;19994;-68
2023/03/10 11:21:33;;;;;;;1.50;0.90;;;;;;;;;;7391500;19;20474;-67
2023/03/10 11:24:09;;;;;;;2.78;1.27;;;;;;;;;;7392292;19;20023;-68
2023/03/10 11:26:53;;;;;;;2.60;1.23;;;;;;;;;;7393492;19;20038;-68
2023/03/10 11:29:30;;;;;;;1.00;0.85;;;;;;;;;;7394533;19;20002;-68
2023/03/10 11:32:20;;;;;;;1.73;0.90;;;;;;;;;;7390945;19;19998;-68
2023/03/10 11:34:50;;;;;;;5.55;1.00;;;;;;;;;;7382854;19;19995;-68
2023/03/10 11:37:38;;;;;;;2.17;1.00;;;;;;;;;;7385168;19;20067;-66
2023/03/10 11:40:06;;;;;;;1.35;0.75;;;;;;;;;;7387046;19;19999;-67
2023/03/10 11:43:00;;;;;;;1.90;1.05;;;;;;;;;;7386114;19;20351;-67
2023/03/10 11:45:51;;;;;;;1.90;0.85;;;;;;;;;;7380588;19;20026;-67
2023/03/10 11:48:28;;;;;;;;;;;;;;;;;;7388434;19;20341;-67
2023/03/10 11:50:58;;;;;;;0.80;0.50;;;;;;;;;;7388970;19;19915;-68
2023/03/10 11:53:35;;;;;;;0.75;0.70;;;;;;;;;;7388614;19;20029;-67
2023/03/10 11:56:03;;;;;;;3.05;1.00;;;;;;;;;;7386512;19;20005;-67
2023/03/10 11:58:40;;;;;;;1.00;0.68;;;;;;;;;;7389062;19;20283;-67
2023/03/10 12:01:10;;;;;;;1.05;0.70;;;;;;;;;;7388205;19;20002;-68
2023/03/10 12:03:39;;;;;;;1.27;0.68;;;;;;;;;;7392695;19;20074;-67
2023/03/10 12:06:13;;;;;;;1.13;0.73;;;;;;;;;;7386461;19;20071;-68
2023/03/10 12:08:39;;;;;;;2.03;0.90;;;;;;;;;;7388946;19;20387;-67
2023/03/10 12:11:13;;;;;;;2.17;0.90;;;;;;;;;;7388588;19;20009;-67
2023/03/10 12:13:45;;;;;;;1.13;0.90;;;;;;;;;;7387609;19;20018;-67
2023/03/10 12:16:15;;;;;;;1.05;0.80;;;;;;;;;;7388054;19;20024;-68
2023/03/10 12:18:41;;;;;;;1.38;0.98;;;;;;;;;;7389171;19;20008;-67
2023/03/10 12:21:27;;;;;;;2.38;0.85;;;;;;;;;;7389105;19;20066;-67
2023/03/10 12:23:55;;;;;;;1.55;0.85;;;;;;;;;;7387669;19;19998;-67
2023/03/10 12:26:38;;;;;;;1.73;0.90;;;;;;;;;;7390113;19;20039;-68
2023/03/10 12:29:19;;;;;;;3.90;1.00;;;;;;;;;;7392056;19;19994;-67
2023/03/10 12:31:46;;;;;;;1.38;0.90;;;;;;;;;;7386473;19;19999;-68
2023/03/10 12:34:16;;;;;;;1.15;0.90;;;;;;;;;;7386430;19;20003;-67
2023/03/10 12:36:46;;;;;;;1.92;0.80;;;;;;;;;;7390365;19;20023;-68
2023/03/10 12:39:26;;;;;;;2.92;0.82;;;;;;;;;;7388056;19;20002;-68
2023/03/10 12:41:53;;;;;;;0.85;0.80;;;;;;;;;;7391291;19;20010;-68
2023/03/10 12:44:21;;;;;;;1.00;0.73;;;;;;;;;;7386914;19;20581;-68
2023/03/10 12:46:49;;;;;;;1.67;0.82;;;;;;;;;;7389689;19;20411;-67
2023/03/10 12:49:30;;;;;;;0.55;0.55;;;;;;;;;;7387523;19;20023;-68
2023/03/10 12:51:59;;;;;;;0.82;0.73;;;;;;;;;;7387450;19;19998;-67
2023/03/10 12:54:53;;;;;;;1.58;0.85;;;;;;;;;;7385811;19;20469;-67
2023/03/10 12:57:29;;;;;;;0.75;0.73;;;;;;;;;;7386450;19;19999;-66
2023/03/10 13:00:12;;;;;;;0.75;0.50;;;;;;;;;;7387421;19;19995;-66
2023/03/10 13:02:54;;;;;;;1.25;0.90;;;;;;;;;;7387767;19;20069;-67
2023/03/10 13:05:31;;;;;;;1.08;0.57;;;;;;;;;;7386298;19;20010;-67
2023/03/10 13:08:23;;;;;;;1.95;0.98;;;;;;;;;;7387463;19;20023;-68
2023/03/10 13:10:54;;;;;;;1.50;0.80;;;;;;;;;;7386384;19;19994;-67
2023/03/10 13:13:20;;;;;;;0.95;0.65;;;;;;;;;;7385415;19;20006;-67
2023/03/10 13:15:57;;;;;;;1.27;0.90;;;;;;;;;;7384082;19;20014;-66
2023/03/10 13:18:22;;;;;;;3.03;0.90;;;;;;;;;;7385522;19;20480;-67
2023/03/10 13:20:49;;;;;;;2.25;0.98;;;;;;;;;;7387195;19;20002;-68
2023/03/10 13:23:22;;;;;;;0.52;0.50;;;;;;;;;;7384831;19;20002;-68
2023/03/10 13:25:59;;;;;;;1.38;0.73;;;;;;;;;;7388046;19;19994;-68
2023/03/10 13:28:26;;;;;;;1.42;0.90;;;;;;;;;;7391352;19;20127;-67
2023/03/10 13:31:11;;;;;;;0.98;0.80;;;;;;;;;;7387187;19;20041;-69
2023/03/10 13:33:36;;;;;;;0.85;0.60;;;;;;;;;;7388241;19;20062;-69
2023/03/10 13:36:27;;;;;;;1.15;0.70;;;;;;;;;;7384588;19;20376;-69
2023/03/10 13:38:55;;;;;;;0.70;0.70;;;;;;;;;;7388089;19;20013;-69
2023/03/10 13:41:21;;;;;;;1.05;0.70;;;;;;;;;;7387674;19;20062;-74
2023/03/10 13:43:49;;;;;;;3.85;1.00;;;;;;;;;;7388343;19;20003;-68
2023/03/10 13:46:17;;;;;;;1.65;0.93;;;;;;;;;;7386145;19;20027;-66
2023/03/10 13:48:44;;;;;;;4.45;1.10;;;;;;;;;;7388619;19;20006;-68
2023/03/10 13:51:17;;;;;;;2.35;0.90;;;;;;;;;;7389513;19;20004;-67
2023/03/10 13:53:43;;;;;;;1.10;1.00;;;;;;;;;;7387757;19;20003;-68
2023/03/10 13:56:21;;;;;;;1.90;1.25;;;;;;;;;;7385622;19;19995;-68
2023/03/10 13:58:48;;;;;;;2.45;1.20;;;;;;;;;;7388978;19;20003;-68
2023/03/10 14:01:27;;;;;;;1.50;0.90;;;;;;;;;;7388685;19;19999;-67
2023/03/10 14:03:55;;;;;;;2.50;1.00;;;;;;;;;;7387560;19;20009;-68
2023/03/10 14:06:22;;;;;;;0.65;0.65;;;;;;;;;;7386455;19;20010;-69
2023/03/10 14:08:48;;;;;;;2.17;0.73;;;;;;;;;;7387769;19;19999;-67
2023/03/10 14:11:33;;;;;;;1.08;0.80;;;;;;;;;;7389646;19;20003;-68
2023/03/10 14:14:00;;;;;;;0.93;0.63;;;;;;;;;;7384875;19;19999;-68
2023/03/10 14:16:49;;;;;;;0.98;0.90;;;;;;;;;;7382940;19;20455;-67
2023/03/10 14:19:44;;;;;;;0.75;0.75;;;;;;;;;;7384971;19;20483;-67
2023/03/10 14:22:36;;;;;;;0.63;0.63;;;;;;;;;;7385545;19;20007;-66
2023/03/10 14:25:09;;;;;;;0.70;0.70;;;;;;;;;;7389220;19;19998;-67
2023/03/10 14:27:36;;;;;;;3.95;1.20;;;;;;;;;;7391719;19;20001;-67
2023/03/10 14:30:13;;;;;;;1.75;0.80;;;;;;;;;;7392285;19;20867;-67
2023/03/10 14:32:39;;;;;;;0.40;0.40;;;;;;;;;;7390996;19;20493;-67
2023/03/10 14:35:10;;;;;;;1.02;0.55;;;;;;;;;;7389288;19;19998;-66
2023/03/10 14:37:35;;;;;;;1.40;0.50;;;;;;;;;;7392686;19;20002;-68
2023/03/10 14:40:00;;;;;;;0.32;0.32;;;;;;;;;;7390439;19;20010;-67
2023/03/10 14:42:28;;;;;;;0.50;0.50;;;;;;;;;;7394261;19;20487;-66
2023/03/10 14:44:54;;;;;;;0.40;0.40;;;;;;;;;;7389798;19;20452;-68
2023/03/10 14:47:19;;;;;;;0.82;0.32;;;;;;;;;;7391212;19;20024;-66
2023/03/10 14:49:45;;;;;;;2.13;0.40;;;;;;;;;;7391984;19;20019;-65
2023/03/10 14:52:13;;;;;;;0.43;0.40;;;;;;;;;;7382414;19;20023;-67
2023/03/10 14:54:38;;;;;;;0.70;0.50;;;;;;;;;;7382987;19;20019;-68
2023/03/10 14:57:04;;;;;;;0.40;0.40;;;;;;;;;;7389122;19;20018;-60